createdAt,value
2022-12-19T00:00:51.156Z,-1.20
2022-12-19T00:02:54.511Z,-0.57
2022-12-19T00:04:59.216Z,-2.57
2022-12-19T00:07:02.810Z,-0.52
2022-12-19T00:09:07.158Z,-1.02
2022-12-19T00:11:12.464Z,-1.78
2022-12-19T00:13:15.726Z,-0.38
2022-12-19T00:15:19.265Z,-3.49
2022-12-19T00:17:22.512Z,-2.24
2022-12-19T00:19:25.684Z,-0.98
2022-12-19T00:21:35.138Z,-0.39
2022-12-19T00:23:38.968Z,-0.32
2022-12-19T00:25:45.741Z,-0.26
2022-12-19T00:27:50.348Z,-2.99
2022-12-19T00:29:53.913Z,-2.54
2022-12-19T00:31:57.240Z,-1.50
2022-12-19T00:34:01.554Z,-0.26
2022-12-19T00:36:08.384Z,-0.71
2022-12-19T00:38:13.032Z,-1.67
2022-12-19T00:40:17.187Z,-0.31
2022-12-19T00:42:20.503Z,-1.64
2022-12-19T00:44:25.240Z,-1.74
2022-12-19T00:46:31.699Z,-1.85
2022-12-19T00:48:35.387Z,-0.30
2022-12-19T00:50:40.095Z,-3.41
2022-12-19T00:52:43.330Z,-0.97
2022-12-19T00:54:48.066Z,-1.67
2022-12-19T00:56:51.343Z,-1.81
2022-12-19T00:58:56.155Z,-1.95
2022-12-19T01:00:59.571Z,-2.18
2022-12-19T01:03:05.637Z,-0.32
2022-12-19T01:05:10.231Z,-1.03
2022-12-19T01:07:13.500Z,-0.41
2022-12-19T01:09:16.725Z,-2.16
2022-12-19T01:11:41.726Z,-0.37
2022-12-19T01:13:44.048Z,-4.51
2022-12-19T01:15:47.586Z,-0.40
2022-12-19T01:17:51.816Z,-0.33
2022-12-19T01:19:55.087Z,-3.54
2022-12-19T01:21:58.383Z,-0.30
2022-12-19T01:24:03.630Z,-3.88
2022-12-19T01:26:07.583Z,-1.45
2022-12-19T01:28:16.330Z,-0.15
2022-12-19T01:30:20.066Z,-0.09
2022-12-19T01:32:24.766Z,-0.68
2022-12-19T01:34:29.001Z,-0.10
2022-12-19T01:36:34.767Z,-0.73
2022-12-19T01:38:42.991Z,-1.56
2022-12-19T01:40:52.950Z,0.12
2022-12-19T01:42:56.499Z,-2.31
2022-12-19T01:45:34.054Z,0.02
2022-12-19T01:47:48.430Z,-0.55
2022-12-19T01:49:55.754Z,-0.52
2022-12-19T01:52:02.656Z,0.09
2022-12-19T01:54:09.446Z,0.07
2022-12-19T01:56:13.371Z,-1.59
2022-12-19T01:58:20.230Z,-0.53
2022-12-19T02:00:24.901Z,-0.95
2022-12-19T02:02:33.194Z,-1.68
2022-12-19T02:04:37.444Z,-1.87
2022-12-19T02:06:42.443Z,-0.46
2022-12-19T02:08:49.304Z,-1.60
2022-12-19T02:10:52.847Z,0.33
2022-12-19T02:12:56.798Z,0.15
2022-12-19T02:15:03.092Z,-4.63
2022-12-19T02:17:20.452Z,-4.18
2022-12-19T02:20:01.119Z,0.15
2022-12-19T02:22:08.214Z,-2.24
2022-12-19T02:24:44.515Z,0.13
2022-12-19T02:27:03.319Z,-0.25
2022-12-19T02:29:41.674Z,-1.10
2022-12-19T02:31:52.306Z,0.17
2022-12-19T02:34:04.703Z,0.29
2022-12-19T02:36:18.140Z,0.20
2022-12-19T02:38:29.284Z,0.24
2022-12-19T02:40:37.333Z,-3.65
2022-12-19T02:42:46.084Z,-0.39
2022-12-19T02:44:53.429Z,-1.27
2022-12-19T02:47:00.119Z,-1.31
2022-12-19T02:49:04.769Z,-2.07
2022-12-19T02:51:08.228Z,-1.56
2022-12-19T02:53:15.619Z,-0.88
2022-12-19T02:55:23.892Z,-0.31
2022-12-19T02:57:35.098Z,0.42
2022-12-19T02:59:56.230Z,-0.71
2022-12-19T03:02:11.919Z,0.45
2022-12-19T03:04:25.764Z,-1.21
2022-12-19T03:06:39.689Z,0.49
2022-12-19T03:08:52.320Z,-0.74
2022-12-19T03:11:02.199Z,0.52
2022-12-19T03:13:11.843Z,-1.18
2022-12-19T03:15:16.034Z,-0.27
2022-12-19T03:17:21.215Z,-0.08
2022-12-19T03:19:25.597Z,-1.84
2022-12-19T03:21:35.984Z,-0.02
2022-12-19T03:23:40.944Z,-1.16
2022-12-19T03:25:49.754Z,0.58
2022-12-19T03:27:54.841Z,-2.18
2022-12-19T03:30:03.953Z,0.61
2022-12-19T03:32:15.221Z,-1.27
2022-12-19T03:34:26.284Z,-2.10
2022-12-19T03:36:34.911Z,-0.23
2022-12-19T03:38:40.481Z,-0.22
2022-12-19T03:40:45.614Z,-1.31
2022-12-19T03:43:08.372Z,0.81
2022-12-19T03:45:15.121Z,-0.81
2022-12-19T03:47:24.072Z,-3.13
2022-12-19T03:49:29.518Z,0.96
2022-12-19T03:51:40.818Z,-0.22
2022-12-19T03:53:59.273Z,0.04
2022-12-19T03:56:12.662Z,0.89
2022-12-19T03:58:22.327Z,-0.25
2022-12-19T04:00:27.035Z,0.95
2022-12-19T04:02:31.523Z,0.88
2022-12-19T04:04:45.395Z,0.53
2022-12-19T04:06:50.194Z,0.91
2022-12-19T04:08:53.720Z,0.92
2022-12-19T04:11:04.653Z,0.94
2022-12-19T04:13:13.522Z,-0.80
2022-12-19T04:15:17.478Z,0.89
2022-12-19T04:17:32.220Z,0.41
2022-12-19T04:19:43.923Z,0.12
2022-12-19T04:21:53.947Z,-0.77
2022-12-19T04:24:02.842Z,0.89
2022-12-19T04:26:08.497Z,-4.88
2022-12-19T04:28:18.577Z,0.91
2022-12-19T04:30:21.945Z,0.82
2022-12-19T04:32:26.921Z,0.82
2022-12-19T04:34:33.011Z,0.85
2022-12-19T04:36:37.701Z,0.92
2022-12-19T04:38:41.050Z,-0.13
2022-12-19T04:40:44.377Z,-0.04
2022-12-19T04:42:47.542Z,-0.04
2022-12-19T04:44:50.754Z,-1.71
2022-12-19T04:46:54.028Z,1.25
2022-12-19T04:48:57.315Z,-4.77
2022-12-19T04:51:00.810Z,0.37
2022-12-19T04:53:05.438Z,-0.38
2022-12-19T04:55:10.464Z,1.24
2022-12-19T04:57:13.768Z,-0.51
2022-12-19T04:59:17.022Z,1.46
2022-12-19T05:01:20.283Z,-0.21
2022-12-19T05:03:23.648Z,1.36
2022-12-19T05:05:27.206Z,0.62
2022-12-19T05:07:30.482Z,1.12
2022-12-19T05:09:38.197Z,0.87
2022-12-19T05:11:41.471Z,1.17
2022-12-19T05:13:44.936Z,0.51
2022-12-19T05:15:58.154Z,1.20
2022-12-19T05:18:01.448Z,1.23
2022-12-19T05:20:05.987Z,0.78
2022-12-19T05:22:09.357Z,-0.47
2022-12-19T05:24:12.529Z,0.52
2022-12-19T05:26:17.505Z,1.49
2022-12-19T05:28:21.197Z,-0.45
2022-12-19T05:30:24.531Z,1.41
2022-12-19T05:32:31.171Z,0.68
2022-12-19T05:34:34.403Z,1.58
2022-12-19T05:36:37.674Z,1.58
2022-12-19T05:38:41.292Z,1.54
2022-12-19T05:40:44.499Z,-4.30
2022-12-19T05:42:49.029Z,1.47
2022-12-19T05:44:52.229Z,-0.85
2022-12-19T05:46:56.559Z,1.57
2022-12-19T05:49:00.563Z,-0.08
2022-12-19T05:51:04.801Z,1.53
2022-12-19T05:53:08.405Z,0.51
2022-12-19T05:55:12.476Z,1.55
2022-12-19T05:57:15.684Z,1.53
2022-12-19T05:59:20.230Z,1.44
2022-12-19T06:01:26.121Z,1.49
2022-12-19T06:03:29.485Z,1.46
2022-12-19T06:05:33.110Z,0.32
2022-12-19T06:07:36.656Z,1.53
2022-12-19T06:09:39.831Z,1.35
2022-12-19T06:11:42.979Z,1.64
2022-12-19T06:13:46.216Z,1.59
2022-12-19T06:15:50.771Z,1.64
2022-12-19T06:17:55.411Z,1.17
2022-12-19T06:19:58.567Z,1.54
2022-12-19T06:22:01.725Z,0.27
2022-12-19T06:24:05.561Z,-0.50
2022-12-19T06:26:18.273Z,1.60
2022-12-19T06:28:22.140Z,1.66
2022-12-19T06:30:25.272Z,1.64
2022-12-19T06:32:32.377Z,1.67
2022-12-19T06:35:03.231Z,1.69
2022-12-19T06:37:07.804Z,1.71
2022-12-19T06:39:15.627Z,1.67
2022-12-19T06:41:37.840Z,1.33
2022-12-19T06:43:41.095Z,1.85
2022-12-19T06:45:44.406Z,1.89
2022-12-19T06:47:51.665Z,1.90
2022-12-19T06:49:55.072Z,1.98
2022-12-19T06:51:58.271Z,2.00
2022-12-19T06:54:01.462Z,2.13
2022-12-19T06:56:05.919Z,1.45
2022-12-19T06:58:09.125Z,2.07
2022-12-19T07:00:14.005Z,1.19
2022-12-19T07:02:27.271Z,2.17
2022-12-19T07:04:36.171Z,2.22
2022-12-19T07:06:42.350Z,2.34
2022-12-19T07:08:47.884Z,2.26
2022-12-19T07:10:51.090Z,2.33
2022-12-19T07:12:54.278Z,1.93
2022-12-19T07:14:57.467Z,2.29
2022-12-19T07:17:02.767Z,2.25
2022-12-19T07:19:06.443Z,2.23
2022-12-19T07:21:13.972Z,1.75
2022-12-19T07:23:22.097Z,2.24
2022-12-19T07:25:25.299Z,1.72
2022-12-19T07:27:35.505Z,2.20
2022-12-19T07:29:39.231Z,2.27
2022-12-19T07:31:42.642Z,1.49
2022-12-19T07:33:45.985Z,2.36
2022-12-19T07:35:49.315Z,-1.24
2022-12-19T07:37:53.866Z,2.35
2022-12-19T07:39:57.019Z,2.26
2022-12-19T07:42:00.221Z,2.37
2022-12-19T07:44:13.211Z,2.38
2022-12-19T07:46:16.438Z,2.46
2022-12-19T07:48:19.641Z,2.55
2022-12-19T07:50:22.785Z,2.40
2022-12-19T07:52:26.750Z,2.33
2022-12-19T07:54:31.237Z,2.42
2022-12-19T07:56:34.421Z,2.52
2022-12-19T07:58:37.657Z,2.67
2022-12-19T08:00:41.009Z,2.77
2022-12-19T08:02:44.338Z,2.69
2022-12-19T08:04:48.221Z,2.73
2022-12-19T08:06:51.402Z,2.68
2022-12-19T08:08:54.574Z,2.71
2022-12-19T08:11:09.871Z,2.73
2022-12-19T08:13:13.079Z,2.36
2022-12-19T08:15:16.370Z,2.27
2022-12-19T08:17:21.049Z,2.28
2022-12-19T08:19:27.609Z,2.40
2022-12-19T08:21:31.554Z,2.36
2022-12-19T08:23:34.812Z,2.53
2022-12-19T08:25:41.146Z,2.54
2022-12-19T08:27:45.731Z,2.49
2022-12-19T08:29:48.879Z,2.54
2022-12-19T08:31:52.327Z,2.59
2022-12-19T08:33:57.631Z,2.54
2022-12-19T08:36:04.661Z,2.57
2022-12-19T08:38:07.820Z,2.65
2022-12-19T08:40:12.243Z,2.72
2022-12-19T08:42:15.668Z,2.87
2022-12-19T08:44:20.231Z,2.86
2022-12-19T08:46:24.150Z,3.05
2022-12-19T08:48:27.605Z,2.26
2022-12-19T08:50:30.746Z,3.16
2022-12-19T08:52:33.903Z,3.14
2022-12-19T08:54:37.375Z,3.13
2022-12-19T08:56:42.242Z,3.06
2022-12-19T08:58:52.677Z,2.62
2022-12-19T09:01:05.312Z,3.27
2022-12-19T09:03:09.443Z,3.29
2022-12-19T09:05:59.490Z,3.38
2022-12-19T09:07:38.581Z,3.42
2022-12-19T09:09:42.148Z,2.21
2022-12-19T09:11:47.462Z,3.31
2022-12-19T09:13:51.708Z,3.78
2022-12-19T09:16:02.799Z,3.60
2022-12-19T09:18:06.535Z,3.61
2022-12-19T09:20:11.828Z,3.53
2022-12-19T09:22:14.964Z,3.59
2022-12-19T09:24:18.129Z,3.56
2022-12-19T09:26:23.025Z,3.63
2022-12-19T09:28:28.026Z,3.59
2022-12-19T09:30:31.548Z,3.62
2022-12-19T09:32:36.767Z,3.62
2022-12-19T09:34:39.910Z,3.50
2022-12-19T09:36:43.027Z,3.52
2022-12-19T09:38:47.096Z,3.68
2022-12-19T09:41:10.810Z,3.68
2022-12-19T09:43:28.087Z,3.81
2022-12-19T09:45:49.028Z,3.83
2022-12-19T09:47:58.820Z,3.97
2022-12-19T09:50:07.586Z,4.10
2022-12-19T09:52:18.188Z,4.01
2022-12-19T09:54:27.685Z,4.54
2022-12-19T09:56:45.356Z,4.77
2022-12-19T09:58:56.963Z,4.83
2022-12-19T10:01:07.433Z,4.82
2022-12-19T10:03:23.160Z,4.67
2022-12-19T10:07:07.707Z,4.51
2022-12-19T10:08:08.545Z,4.31
2022-12-19T10:12:35.913Z,4.91
2022-12-19T10:13:13.029Z,5.03
2022-12-19T10:15:26.935Z,5.07
2022-12-19T10:17:45.019Z,5.22
2022-12-19T10:20:15.895Z,5.15
2022-12-19T10:22:26.200Z,5.20
2022-12-19T10:25:02.086Z,5.14
2022-12-19T10:27:21.810Z,5.29
2022-12-19T10:30:01.399Z,5.34
2022-12-19T10:32:15.959Z,5.56
2022-12-19T10:34:23.024Z,5.60
2022-12-19T10:36:55.720Z,5.27
2022-12-19T10:38:59.742Z,5.61
2022-12-19T10:41:16.642Z,5.80
2022-12-19T10:43:35.619Z,5.94
2022-12-19T10:45:47.059Z,6.02
2022-12-19T10:47:56.440Z,5.72
2022-12-19T10:50:03.992Z,5.48
2022-12-19T10:52:13.320Z,5.69
2022-12-19T10:54:16.549Z,5.50
2022-12-19T10:56:24.696Z,3.76
2022-12-19T10:58:34.526Z,5.22
2022-12-19T11:00:39.176Z,5.13
2022-12-19T11:02:47.069Z,4.98
2022-12-19T11:04:50.501Z,5.05
2022-12-19T11:07:07.953Z,4.56
2022-12-19T11:09:27.587Z,5.12
2022-12-19T11:13:30.212Z,5.26
2022-12-19T11:18:27.419Z,5.21
2022-12-19T11:21:58.831Z,5.23
2022-12-19T11:27:03.750Z,4.39
2022-12-19T11:29:37.594Z,5.64
2022-12-19T11:30:45.724Z,5.47
2022-12-19T11:30:46.601Z,4.70
2022-12-19T11:30:48.005Z,5.39
2022-12-19T11:33:56.968Z,5.63
2022-12-19T11:36:03.627Z,5.69
2022-12-19T11:38:08.468Z,5.83
2022-12-19T11:40:21.225Z,5.83
2022-12-19T11:42:31.473Z,6.09
2022-12-19T11:44:41.101Z,6.60
2022-12-19T11:46:50.866Z,6.70
2022-12-19T11:48:59.672Z,6.74
2022-12-19T11:51:11.187Z,6.82
2022-12-19T11:53:20.573Z,6.84
2022-12-19T11:55:27.577Z,6.56
2022-12-19T11:57:33.101Z,6.33
2022-12-19T11:59:38.382Z,6.42
2022-12-19T12:01:54.452Z,5.97
2022-12-19T12:04:43.684Z,6.44
2022-12-19T12:06:51.997Z,6.14
2022-12-19T12:12:15.704Z,6.19
2022-12-19T12:19:44.547Z,6.17
2022-12-19T12:22:05.969Z,6.30
2022-12-19T12:23:35.263Z,6.26
2022-12-19T12:31:16.921Z,6.29
2022-12-19T12:31:40.238Z,7.13
2022-12-19T12:31:53.070Z,6.73
2022-12-19T12:32:00.980Z,7.41
2022-12-19T12:32:02.998Z,7.52
2022-12-19T12:35:50.924Z,7.52
2022-12-19T12:37:51.336Z,7.55
2022-12-19T12:38:45.348Z,7.72
2022-12-19T12:41:20.990Z,7.43
2022-12-19T12:43:54.734Z,7.10
2022-12-19T12:45:59.311Z,6.12
2022-12-19T12:48:02.551Z,6.31
2022-12-19T12:50:09.082Z,6.00
2022-12-19T12:52:17.489Z,5.73
2022-12-19T12:54:28.310Z,5.78
2022-12-19T12:56:33.208Z,5.69
2022-12-19T12:59:21.419Z,5.64
2022-12-19T13:01:38.629Z,5.63
2022-12-19T13:03:43.349Z,5.39
2022-12-19T13:06:07.960Z,5.58
2022-12-19T13:08:37.048Z,4.13
2022-12-19T13:10:55.052Z,5.39
2022-12-19T13:13:02.564Z,5.29
2022-12-19T13:15:44.273Z,5.27
2022-12-19T13:18:14.716Z,5.21
2022-12-19T13:20:43.035Z,5.02
2022-12-19T13:22:52.396Z,4.59
2022-12-19T13:24:58.995Z,4.66
2022-12-19T13:27:02.145Z,3.25
2022-12-19T13:29:31.284Z,4.98
2022-12-19T13:31:37.300Z,4.94
2022-12-19T13:34:07.341Z,4.98
2022-12-19T13:39:51.353Z,4.37
2022-12-19T13:39:58.424Z,4.73
2022-12-19T13:42:26.211Z,5.26
2022-12-19T13:44:30.287Z,5.01
2022-12-19T13:46:41.469Z,5.42
2022-12-19T13:48:49.841Z,2.80
2022-12-19T13:50:53.618Z,5.68
2022-12-19T13:52:57.223Z,5.65
2022-12-19T13:55:00.792Z,5.21
2022-12-19T13:57:09.764Z,5.67
2022-12-19T13:59:13.287Z,3.91
2022-12-19T14:01:24.101Z,4.38
2022-12-19T14:03:37.261Z,5.38
2022-12-19T14:06:16.059Z,3.12
2022-12-19T14:08:08.148Z,5.67
2022-12-19T14:11:37.967Z,5.66
2022-12-19T14:13:51.131Z,5.55
2022-12-19T14:15:32.436Z,3.00
2022-12-19T14:17:35.680Z,5.49
2022-12-19T14:19:42.452Z,5.25
2022-12-19T14:22:07.037Z,5.36
2022-12-19T14:24:12.821Z,5.37
2022-12-19T14:28:19.922Z,5.05
2022-12-19T14:28:55.063Z,5.44
2022-12-19T14:31:03.841Z,5.40
2022-12-19T14:33:45.139Z,4.05
2022-12-19T14:36:07.919Z,5.33
2022-12-19T14:39:24.576Z,4.55
2022-12-19T14:40:43.080Z,5.08
2022-12-19T14:43:57.138Z,5.34
2022-12-19T14:53:17.944Z,2.62
2022-12-19T14:54:11.821Z,5.28
2022-12-19T14:54:37.732Z,5.21
2022-12-19T14:54:51.479Z,5.14
2022-12-19T14:58:52.565Z,4.26
2022-12-19T15:01:09.468Z,5.09
2022-12-19T15:03:22.676Z,4.81
2022-12-19T15:05:26.537Z,-2.34
2022-12-19T15:07:33.298Z,4.83
2022-12-19T15:11:00.031Z,5.14
2022-12-19T15:14:51.839Z,1.08
2022-12-19T15:15:21.291Z,4.80
2022-12-19T15:17:26.960Z,2.73
2022-12-19T15:19:30.196Z,4.81
2022-12-19T15:21:33.469Z,4.51
2022-12-19T15:23:37.775Z,4.66
2022-12-19T15:26:03.237Z,4.69
2022-12-19T15:28:13.431Z,2.85
2022-12-19T15:30:19.592Z,4.51
2022-12-19T15:32:23.270Z,4.39
2022-12-19T15:34:41.585Z,3.22
2022-12-19T15:36:47.861Z,4.20
2022-12-19T15:38:51.208Z,4.16
2022-12-19T15:40:56.222Z,3.74
2022-12-19T15:42:59.917Z,4.11
2022-12-19T15:45:03.201Z,4.07
2022-12-19T15:47:11.961Z,3.92
2022-12-19T15:49:16.954Z,3.44
2022-12-19T15:51:20.162Z,3.91
2022-12-19T15:53:40.309Z,3.95
2022-12-19T15:55:44.769Z,2.33
2022-12-19T15:57:53.824Z,3.76
2022-12-19T15:59:59.684Z,3.77
2022-12-19T16:02:03.764Z,3.76
2022-12-19T16:04:13.755Z,3.78
2022-12-19T16:06:17.167Z,3.78
2022-12-19T16:08:25.351Z,3.79
2022-12-19T16:10:28.671Z,3.50
2022-12-19T16:12:36.570Z,3.85
2022-12-19T16:14:41.200Z,3.44
2022-12-19T16:16:47.725Z,2.97
2022-12-19T16:18:51.070Z,3.43
2022-12-19T16:20:54.473Z,3.74
2022-12-19T16:22:57.938Z,3.64
2022-12-19T16:25:01.119Z,3.71
2022-12-19T16:27:04.738Z,3.67
2022-12-19T16:29:18.891Z,3.62
2022-12-19T16:31:27.645Z,3.63
2022-12-19T16:33:31.997Z,3.66
2022-12-19T16:36:02.990Z,3.58
2022-12-19T16:37:58.410Z,1.83
2022-12-19T16:40:02.046Z,3.68
2022-12-19T16:42:06.029Z,3.71
2022-12-19T16:44:19.492Z,3.80
2022-12-19T16:46:30.622Z,3.76
2022-12-19T16:48:35.586Z,3.70
2022-12-19T16:50:38.819Z,3.71
2022-12-19T16:52:42.837Z,3.65
2022-12-19T16:54:46.135Z,1.72
2022-12-19T16:56:51.416Z,3.68
2022-12-19T16:58:54.885Z,2.62
2022-12-19T17:00:58.429Z,2.62
2022-12-19T17:03:08.293Z,3.25
2022-12-19T17:05:22.536Z,-0.53
2022-12-19T17:07:25.809Z,3.41
2022-12-19T17:09:29.120Z,3.62
2022-12-19T17:11:32.529Z,3.59
2022-12-19T17:13:35.884Z,3.65
2022-12-19T17:15:39.237Z,3.68
2022-12-19T17:17:42.419Z,2.33
2022-12-19T17:19:47.393Z,1.84
2022-12-19T17:21:51.663Z,3.29
2022-12-19T17:23:54.792Z,2.90
2022-12-19T17:25:59.389Z,3.37
2022-12-19T17:28:02.542Z,3.97
2022-12-19T17:30:07.646Z,3.47
2022-12-19T17:32:19.851Z,4.09
2022-12-19T17:34:30.929Z,4.13
2022-12-19T17:36:37.723Z,4.14
2022-12-19T17:38:41.101Z,4.22
2022-12-19T17:40:45.163Z,4.02
2022-12-19T17:42:48.734Z,4.30
2022-12-19T17:44:52.218Z,4.30
2022-12-19T17:46:55.363Z,1.02
2022-12-19T17:48:58.502Z,4.25
2022-12-19T17:51:01.719Z,4.16
2022-12-19T17:53:06.771Z,4.25
2022-12-19T17:55:20.687Z,4.24
2022-12-19T17:57:23.835Z,4.33
2022-12-19T17:59:26.920Z,3.62
2022-12-19T18:01:32.277Z,2.44
2022-12-19T18:03:35.663Z,4.33
2022-12-19T18:05:38.837Z,4.29
2022-12-19T18:07:42.075Z,4.31
2022-12-19T18:09:47.624Z,2.42
2022-12-19T18:11:52.591Z,3.14
2022-12-19T18:13:57.043Z,4.40
2022-12-19T18:16:03.615Z,4.33
2022-12-19T18:18:11.838Z,4.05
2022-12-19T18:20:30.955Z,4.34
2022-12-19T18:22:35.098Z,4.26
2022-12-19T18:24:38.430Z,4.18
2022-12-19T18:26:43.090Z,4.25
2022-12-19T18:28:46.442Z,4.21
2022-12-19T18:30:52.418Z,4.15
2022-12-19T18:32:59.711Z,4.14
2022-12-19T18:35:03.085Z,1.82
2022-12-19T18:37:06.540Z,3.83
2022-12-19T18:39:21.751Z,3.14
2022-12-19T18:41:25.510Z,4.04
2022-12-19T18:43:31.091Z,4.00
2022-12-19T18:45:38.619Z,2.60
2022-12-19T18:47:44.559Z,3.57
2022-12-19T18:49:53.191Z,4.06
2022-12-19T18:51:56.403Z,3.30
2022-12-19T18:54:00.081Z,3.90
2022-12-19T18:56:04.625Z,3.97
2022-12-19T18:58:08.135Z,3.94
2022-12-19T19:00:15.830Z,3.91
2022-12-19T19:02:27.093Z,3.21
2022-12-19T19:04:30.508Z,3.96
2022-12-19T19:06:37.789Z,3.92
2022-12-19T19:08:41.548Z,-3.11
2022-12-19T19:10:59.345Z,3.83
2022-12-19T19:13:08.238Z,3.81
2022-12-19T19:15:14.700Z,3.80
2022-12-19T19:17:28.098Z,3.82
2022-12-19T19:19:31.382Z,2.76
2022-12-19T19:21:36.809Z,3.58
2022-12-19T19:23:44.535Z,3.80
2022-12-19T19:25:47.752Z,3.82
2022-12-19T19:27:51.042Z,3.73
2022-12-19T19:29:54.228Z,2.74
2022-12-19T19:31:58.891Z,3.44
2022-12-19T19:34:07.215Z,3.82
2022-12-19T19:36:15.304Z,3.82
2022-12-19T19:38:19.827Z,0.69
2022-12-19T19:40:23.276Z,2.43
2022-12-19T19:42:26.556Z,3.85
2022-12-19T19:44:30.094Z,3.94
2022-12-19T19:46:33.481Z,3.94
2022-12-19T19:48:38.187Z,3.99
2022-12-19T19:50:41.430Z,3.99
2022-12-19T19:52:44.621Z,4.04
2022-12-19T19:54:47.847Z,1.57
2022-12-19T19:56:51.084Z,3.62
2022-12-19T19:58:55.255Z,4.00
2022-12-19T20:00:58.612Z,3.95
2022-12-19T20:03:06.356Z,2.50
2022-12-19T20:05:13.381Z,2.24
2022-12-19T20:07:18.177Z,2.90
2022-12-19T20:09:22.392Z,3.70
2022-12-19T20:11:26.671Z,4.02
2022-12-19T20:13:31.424Z,2.25
2022-12-19T20:15:35.515Z,-0.03
2022-12-19T20:17:41.095Z,1.70
2022-12-19T20:19:45.135Z,3.19
2022-12-19T20:21:52.042Z,2.06
2022-12-19T20:23:56.446Z,0.62
2022-12-19T20:26:03.059Z,4.18
2022-12-19T20:28:07.709Z,4.19
2022-12-19T20:30:12.632Z,3.69
2022-12-19T20:32:16.712Z,3.37
2022-12-19T20:34:21.600Z,4.29
2022-12-19T20:36:26.500Z,3.78
2022-12-19T20:38:32.019Z,4.30
2022-12-19T20:40:39.404Z,4.13
2022-12-19T20:42:43.218Z,3.69
2022-12-19T20:44:47.086Z,2.10
2022-12-19T20:46:51.120Z,4.08
2022-12-19T20:48:55.765Z,3.03
2022-12-19T20:51:00.748Z,3.08
2022-12-19T20:53:04.902Z,-0.80
2022-12-19T20:55:12.623Z,4.26
2022-12-19T20:57:17.316Z,3.97
2022-12-19T20:59:21.179Z,4.29
2022-12-19T21:01:26.302Z,4.20
2022-12-19T21:03:30.613Z,4.25
2022-12-19T21:05:34.581Z,3.84
2022-12-19T21:07:37.773Z,4.32
2022-12-19T21:09:45.039Z,4.32
2022-12-19T21:11:49.876Z,4.28
2022-12-19T21:13:53.846Z,4.21
2022-12-19T21:16:00.329Z,3.21
2022-12-19T21:18:03.605Z,3.45
2022-12-19T21:20:08.971Z,3.92
2022-12-19T21:22:12.194Z,4.17
2022-12-19T21:24:15.331Z,2.40
2022-12-19T21:26:19.149Z,1.19
2022-12-19T21:28:23.659Z,3.70
2022-12-19T21:30:27.034Z,-0.21
2022-12-19T21:32:30.250Z,3.18
2022-12-19T21:34:33.508Z,4.18
2022-12-19T21:36:36.913Z,-2.20
2022-12-19T21:38:40.686Z,4.24
2022-12-19T21:40:44.611Z,3.22
2022-12-19T21:42:49.309Z,3.77
2022-12-19T21:44:53.877Z,4.22
2022-12-19T21:46:57.139Z,-1.13
2022-12-19T21:49:02.532Z,4.19
2022-12-19T21:51:06.344Z,3.66
2022-12-19T21:53:10.704Z,3.72
2022-12-19T21:55:13.917Z,4.15
2022-12-19T21:57:17.188Z,3.88
2022-12-19T21:59:20.472Z,4.06
2022-12-19T22:01:25.839Z,2.63
2022-12-19T22:03:29.163Z,4.15
2022-12-19T22:05:32.496Z,2.69
2022-12-19T22:07:35.743Z,4.14
2022-12-19T22:09:38.941Z,0.62
2022-12-19T22:11:42.979Z,4.18
2022-12-19T22:13:47.792Z,4.13
2022-12-19T22:15:52.102Z,4.30
2022-12-19T22:17:56.619Z,2.99
2022-12-19T22:19:59.789Z,2.65
2022-12-19T22:22:02.981Z,4.13
2022-12-19T22:24:06.446Z,4.36
2022-12-19T22:26:12.648Z,4.32
2022-12-19T22:28:15.786Z,4.37
2022-12-19T22:30:19.005Z,4.38
2022-12-19T22:32:22.156Z,4.41
2022-12-19T22:34:26.624Z,4.34
2022-12-19T22:36:32.721Z,4.36
2022-12-19T22:38:35.981Z,4.37
2022-12-19T22:40:39.257Z,4.39
2022-12-19T22:42:42.466Z,4.34
2022-12-19T22:44:45.641Z,4.41
2022-12-19T22:46:49.574Z,3.87
2022-12-19T22:48:53.300Z,4.39
2022-12-19T22:50:58.417Z,4.38
2022-12-19T22:53:01.613Z,3.01
2022-12-19T22:55:05.777Z,3.74
2022-12-19T22:57:09.017Z,3.70
2022-12-19T22:59:13.623Z,3.69
2022-12-19T23:01:20.663Z,2.71
2022-12-19T23:03:24.013Z,1.77
2022-12-19T23:05:28.022Z,4.32
2022-12-19T23:07:32.624Z,1.27
2022-12-19T23:09:35.780Z,3.25
2022-12-19T23:11:42.656Z,3.36
2022-12-19T23:13:47.536Z,4.25
2022-12-19T23:15:50.790Z,4.47
2022-12-19T23:17:54.066Z,4.11
2022-12-19T23:19:57.300Z,4.56
2022-12-19T23:22:01.398Z,4.51
2022-12-19T23:24:07.165Z,4.48
2022-12-19T23:26:15.974Z,4.40
2022-12-19T23:28:19.448Z,4.36
2022-12-19T23:30:22.663Z,4.33
2022-12-19T23:32:25.867Z,3.19
2022-12-19T23:34:29.077Z,4.38
2022-12-19T23:37:09.074Z,2.72
2022-12-19T23:38:56.543Z,4.42
2022-12-19T23:41:06.196Z,4.55
2022-12-19T23:43:09.933Z,4.56
2022-12-19T23:45:13.379Z,4.11
2022-12-19T23:47:16.830Z,4.64
2022-12-19T23:49:20.091Z,4.68
2022-12-19T23:51:27.643Z,4.52
2022-12-19T23:53:31.346Z,2.96
2022-12-19T23:55:34.609Z,4.47
2022-12-19T23:57:39.232Z,0.97
2022-12-19T23:59:42.462Z,0.42
